Time;durP1;ratioP1;P1;durP2;ratioP2;P2;SDS_P1;SDS_P2;PMS_P1;PMS_P2;Temp;Humidity;BMP_temperature;BMP_pressure;BME280_temperature;BME280_humidity;BME280_pressure;Samples;Min_cycle;Max_cycle;Signal;HPM_P1;HPM_P2
2021/09/29 00:01:26;;;;;;;1999.90;999.90;;;;;;;15.71;100.00;96106.84;5102692;28;20196;-74
2021/09/29 00:03:53;;;;;;;1999.90;999.90;;;;;;;15.73;100.00;96107.31;5103054;28;20205;-74
2021/09/29 00:06:20;;;;;;;1999.90;999.90;;;;;;;15.71;100.00;96104.22;5102694;28;20568;-74
2021/09/29 00:08:48;;;;;;;1999.90;999.90;;;;;;;15.71;100.00;96114.72;5102732;27;20210;-74
2021/09/29 00:11:16;;;;;;;1999.90;999.90;;;;;;;15.72;100.00;96109.16;5102630;27;20196;-75
2021/09/29 00:13:44;;;;;;;1999.90;999.90;;;;;;;15.82;100.00;96115.94;5102733;28;20792;-74
2021/09/29 00:16:11;;;;;;;1999.90;999.90;;;;;;;15.79;100.00;96113.94;5102559;28;20227;-75
2021/09/29 00:18:38;;;;;;;1999.90;999.90;;;;;;;15.76;100.00;96112.72;5102449;27;20203;-74
2021/09/29 00:21:05;;;;;;;1999.90;999.90;;;;;;;15.76;100.00;96117.19;5097701;28;20260;-75
2021/09/29 00:23:33;;;;;;;1999.90;999.90;;;;;;;15.73;100.00;96113.34;5066271;28;20230;-74
2021/09/29 00:26:00;;;;;;;1999.90;999.90;;;;;;;15.67;100.00;96122.44;5063021;28;20196;-75
2021/09/29 00:28:28;;;;;;;1999.90;999.90;;;;;;;15.55;100.00;96121.50;5095188;28;20206;-75
2021/09/29 00:31:03;;;;;;;1999.90;999.90;;;;;;;15.56;100.00;96112.56;5102443;28;20195;-75
2021/09/29 00:33:31;;;;;;;1999.90;999.90;;;;;;;15.59;100.00;96117.94;5102734;28;20179;-75
2021/09/29 00:35:58;;;;;;;1999.90;999.90;;;;;;;15.62;100.00;96121.81;5099015;27;20235;-75
2021/09/29 00:38:25;;;;;;;1999.90;999.90;;;;;;;15.59;100.00;96123.19;5088491;28;20231;-75
2021/09/29 00:40:53;;;;;;;1999.90;999.90;;;;;;;15.72;100.00;96129.38;5088755;27;20196;-75
2021/09/29 00:43:20;;;;;;;1999.90;999.90;;;;;;;15.62;100.00;96125.22;5088573;28;20204;-75
2021/09/29 00:45:49;;;;;;;1999.90;999.90;;;;;;;15.63;100.00;96118.91;5088881;28;20248;-75
2021/09/29 00:48:16;;;;;;;1999.90;999.90;;;;;;;15.56;100.00;96128.28;5088544;28;20203;-75
2021/09/29 00:50:43;;;;;;;1999.90;999.90;;;;;;;15.62;100.00;96127.06;5088358;28;20222;-75
2021/09/29 00:53:11;;;;;;;1999.90;999.90;;;;;;;15.63;100.00;96123.38;5088456;28;20200;-75
2021/09/29 00:55:38;;;;;;;1999.90;999.90;;;;;;;15.60;100.00;96121.34;5088608;28;20545;-74
2021/09/29 00:58:05;;;;;;;1999.90;999.90;;;;;;;15.54;100.00;96119.97;5088669;28;20203;-74
2021/09/29 01:00:33;;;;;;;1999.90;999.90;;;;;;;15.42;100.00;96128.41;5088344;28;20282;-75
2021/09/29 01:03:02;;;;;;;1999.90;999.90;;;;;;;15.40;100.00;96125.31;5088661;28;20240;-75
2021/09/29 01:05:31;;;;;;;1999.90;999.90;;;;;;;15.34;100.00;96121.34;5088691;28;20637;-74
2021/09/29 01:08:04;;;;;;;1999.90;999.90;;;;;;;15.33;100.00;96128.41;5088218;28;20200;-75
2021/09/29 01:10:37;;;;;;;1999.90;999.90;;;;;;;15.26;100.00;96125.47;5088426;28;20546;-74
2021/09/29 01:13:12;;;;;;;1999.90;999.90;;;;;;;15.27;100.00;96124.41;5088195;28;20202;-75
2021/09/29 01:15:45;;;;;;;1999.90;999.90;;;;;;;15.25;100.00;96134.41;5088295;27;20210;-75
2021/09/29 01:18:17;;;;;;;1999.90;999.90;;;;;;;15.22;100.00;96129.00;5088151;28;20184;-73
2021/09/29 01:20:46;;;;;;;1999.90;999.90;;;;;;;15.26;100.00;96120.25;5088172;28;20687;-73
2021/09/29 01:23:42;;;;;;;1999.90;999.90;;;;;;;15.18;100.00;96128.09;5088183;27;20211;-73
2021/09/29 01:26:18;;;;;;;1999.90;999.90;;;;;;;15.17;100.00;96127.31;5084408;27;20212;-73
2021/09/29 01:28:49;;;;;;;1999.90;999.90;;;;;;;15.26;100.00;96128.09;5068059;28;20576;-75
2021/09/29 01:31:17;;;;;;;1999.90;999.90;;;;;;;15.28;100.00;96125.19;5068002;28;20188;-75
2021/09/29 01:33:46;;;;;;;1999.90;999.90;;;;;;;15.21;100.00;96130.88;5067739;28;20200;-76
2021/09/29 01:36:14;;;;;;;1999.90;999.90;;;;;;;15.14;100.00;96127.16;5067298;28;20229;-76
2021/09/29 01:38:42;;;;;;;1999.90;999.90;;;;;;;15.19;100.00;96132.25;5067583;28;20207;-75
2021/09/29 01:41:10;;;;;;;1999.90;999.90;;;;;;;15.06;100.00;96141.78;5126605;27;20679;-76
2021/09/29 01:43:38;;;;;;;1999.90;999.90;;;;;;;14.95;100.00;96146.53;5152693;27;20205;-75
2021/09/29 01:46:07;;;;;;;1999.90;999.90;;;;;;;14.97;100.00;96143.59;5152584;27;20190;-74
2021/09/29 01:48:44;;;;;;;1999.90;999.90;;;;;;;14.96;100.00;96142.06;5151427;27;20723;-75
2021/09/29 01:51:11;;;;;;;1999.90;999.90;;;;;;;15.01;100.00;96149.75;5152157;27;20186;-74
2021/09/29 01:53:39;;;;;;;1999.90;999.90;;;;;;;14.90;100.00;96146.66;5152239;27;20198;-74
2021/09/29 01:56:07;;;;;;;1999.90;999.90;;;;;;;14.80;100.00;96138.31;5151956;27;20610;-75
2021/09/29 01:58:34;;;;;;;1999.90;999.90;;;;;;;14.77;100.00;96133.69;5152385;27;20205;-75
2021/09/29 02:01:03;;;;;;;1999.90;999.90;;;;;;;14.72;100.00;96133.84;5152185;27;20201;-74
2021/09/29 02:03:31;;;;;;;1999.90;999.90;;;;;;;14.74;100.00;96140.31;5152134;27;20204;-74
2021/09/29 02:05:58;;;;;;;1999.90;999.90;;;;;;;14.70;100.00;96139.38;5151895;27;20194;-74
2021/09/29 02:08:25;;;;;;;1999.90;999.90;;;;;;;14.80;100.00;96136.47;5152254;27;20220;-74
2021/09/29 02:10:52;;;;;;;1999.90;999.90;;;;;;;14.72;100.00;96139.84;5151770;27;20205;-74
2021/09/29 02:13:19;;;;;;;1999.90;999.90;;;;;;;14.75;100.00;96138.44;5152082;27;20209;-74
2021/09/29 02:15:46;;;;;;;1999.90;999.90;;;;;;;14.72;100.00;96147.69;5151618;27;20217;-74
2021/09/29 02:18:15;;;;;;;1999.90;999.90;;;;;;;14.58;100.00;96147.03;5151852;27;20200;-74
2021/09/29 02:20:43;;;;;;;1999.90;999.90;;;;;;;14.57;100.00;96151.50;5151724;27;20208;-74
2021/09/29 02:23:10;;;;;;;1999.90;999.90;;;;;;;14.55;100.00;96155.47;5151777;27;20233;-74
2021/09/29 02:25:37;;;;;;;1999.90;999.90;;;;;;;14.46;100.00;96144.97;5151947;27;20327;-75
2021/09/29 02:28:05;;;;;;;1999.90;999.90;;;;;;;14.49;100.00;96159.31;5079065;27;20247;-74
2021/09/29 02:30:32;;;;;;;1999.90;999.90;;;;;;;14.49;100.00;96160.09;5066672;28;20686;-75
2021/09/29 02:32:59;;;;;;;1999.90;999.90;;;;;;;14.54;100.00;96162.56;5066979;28;20200;-75
2021/09/29 02:35:28;;;;;;;1999.90;999.90;;;;;;;14.44;100.00;96157.59;5066282;28;20228;-76
2021/09/29 02:37:55;;;;;;;1999.90;999.90;;;;;;;14.44;100.00;96152.38;5066128;28;20695;-75
2021/09/29 02:40:22;;;;;;;1999.90;999.90;;;;;;;14.49;100.00;96151.47;5066096;28;20196;-74
2021/09/29 02:42:50;;;;;;;1999.90;999.90;;;;;;;14.32;100.00;96153.94;5066247;28;20620;-74
2021/09/29 02:45:17;;;;;;;1999.90;999.90;;;;;;;14.28;100.00;96151.19;5065959;28;20196;-76
2021/09/29 02:47:45;;;;;;;1999.90;999.90;;;;;;;14.33;100.00;96151.03;5066294;28;20199;-75
2021/09/29 02:50:12;;;;;;;1999.90;999.90;;;;;;;14.35;100.00;96156.72;5065848;28;20204;-75
2021/09/29 02:52:41;;;;;;;1999.90;999.90;;;;;;;14.35;100.00;96154.13;5065588;28;20200;-75
2021/09/29 02:55:08;;;;;;;1999.90;999.90;;;;;;;14.44;100.00;96159.44;5060769;28;20197;-73
2021/09/29 02:57:35;;;;;;;1999.90;999.90;;;;;;;14.38;100.00;96152.78;5056763;28;20209;-74
2021/09/29 03:00:03;;;;;;;1999.90;999.90;;;;;;;14.36;100.00;96155.69;5045726;28;20205;-74
2021/09/29 03:02:30;;;;;;;1999.90;999.90;;;;;;;14.35;100.00;96155.94;5046083;28;20228;-75
2021/09/29 03:04:58;;;;;;;1999.90;999.90;;;;;;;14.35;100.00;96148.88;5046107;28;20197;-74
2021/09/29 03:07:25;;;;;;;1999.90;999.90;;;;;;;14.40;100.00;96155.84;5045576;28;20198;-74
2021/09/29 03:09:53;;;;;;;1999.90;999.90;;;;;;;14.32;100.00;96154.72;5046075;28;20197;-73
2021/09/29 03:12:21;;;;;;;1999.90;999.90;;;;;;;14.32;100.00;96152.09;5045561;28;20193;-73
2021/09/29 03:14:48;;;;;;;1999.90;999.90;;;;;;;14.35;100.00;96153.34;5045506;28;21061;-73
2021/09/29 03:17:15;;;;;;;1999.90;999.90;;;;;;;14.35;100.00;96154.13;5045321;28;20231;-75
2021/09/29 03:19:42;;;;;;;1999.90;999.90;;;;;;;14.32;100.00;96167.03;5045410;28;20197;-75
2021/09/29 03:22:10;;;;;;;1999.90;999.90;;;;;;;14.38;100.00;96156.19;5046349;28;20282;-75
2021/09/29 03:24:37;;;;;;;1999.90;999.90;;;;;;;14.33;100.00;96155.50;5064754;28;20196;-75
2021/09/29 03:27:06;;;;;;;1999.90;999.90;;;;;;;14.38;100.00;96163.25;5065271;28;20206;-75
2021/09/29 03:29:34;;;;;;;1999.90;999.90;;;;;;;14.32;100.00;96159.97;5064648;28;20200;-75
2021/09/29 03:32:01;;;;;;;1999.90;999.90;;;;;;;14.29;100.00;96157.94;5065221;28;21047;-75
2021/09/29 03:34:28;;;;;;;1999.90;999.90;;;;;;;14.25;100.00;96159.59;5065489;28;20247;-77
2021/09/29 03:36:55;;;;;;;1999.90;999.90;;;;;;;14.23;100.00;96162.53;5065076;28;20216;-77
2021/09/29 03:39:22;;;;;;;1999.90;999.90;;;;;;;14.13;100.00;96151.56;5065303;28;20211;-74
2021/09/29 03:41:50;;;;;;;1999.90;999.90;;;;;;;14.22;100.00;96154.97;5064977;28;20236;-76
2021/09/29 03:44:18;;;;;;;1999.90;999.90;;;;;;;14.19;100.00;96147.75;5065451;28;20211;-76
2021/09/29 03:46:46;;;;;;;1999.90;999.90;;;;;;;14.17;100.00;96160.34;5076353;27;20199;-74
2021/09/29 03:49:13;;;;;;;1999.90;999.90;;;;;;;14.17;100.00;96152.50;5064912;28;20657;-75
2021/09/29 03:51:40;;;;;;;1999.90;999.90;;;;;;;14.22;100.00;96152.38;5064956;28;20257;-75
2021/09/29 03:54:08;;;;;;;1999.90;999.90;;;;;;;14.25;100.00;96149.13;5065390;28;20205;-73
2021/09/29 03:56:35;;;;;;;1999.90;999.90;;;;;;;14.07;100.00;96148.28;5064990;28;20616;-72
2021/09/29 03:59:02;;;;;;;1999.90;999.90;;;;;;;14.01;100.00;96148.69;5065048;28;20208;-73
2021/09/29 04:01:31;;;;;;;1999.90;999.90;;;;;;;14.07;100.00;96148.28;5064609;28;20209;-73
2021/09/29 04:03:58;;;;;;;1999.90;999.90;;;;;;;14.12;100.00;96153.38;5065052;28;20200;-71
2021/09/29 04:06:25;;;;;;;1999.90;999.90;;;;;;;14.13;100.00;96156.78;5064878;28;20204;-72
2021/09/29 04:08:52;;;;;;;1999.90;999.90;;;;;;;14.01;100.00;96156.53;5064892;28;20260;-72
2021/09/29 04:11:19;;;;;;;1999.90;999.90;;;;;;;14.06;100.00;96156.41;5065223;28;20204;-72
2021/09/29 04:13:47;;;;;;;1999.90;999.90;;;;;;;14.05;100.00;96160.09;5068820;27;20205;-72
2021/09/29 04:16:14;;;;;;;1999.90;999.90;;;;;;;14.02;100.00;96152.84;5067431;28;20227;-73
2021/09/29 04:18:42;;;;;;;1999.90;999.90;;;;;;;13.99;100.00;96163.91;5068193;27;20204;-73
2021/09/29 04:21:11;;;;;;;1999.90;999.90;;;;;;;14.08;100.00;96162.13;5065930;27;20201;-73
2021/09/29 04:23:39;;;;;;;1999.90;999.90;;;;;;;13.93;100.00;96162.50;5060191;27;20205;-73
2021/09/29 04:26:07;;;;;;;1999.90;999.90;;;;;;;14.01;100.00;96161.75;5050028;27;20714;-73
2021/09/29 04:28:35;;;;;;;1999.90;999.90;;;;;;;13.99;100.00;96167.31;5068194;27;20687;-73
2021/09/29 04:31:03;;;;;;;1999.90;999.90;;;;;;;14.09;100.00;96163.69;5054121;27;20288;-71
2021/09/29 04:33:30;;;;;;;1999.90;999.90;;;;;;;14.05;100.00;96167.94;5065754;28;20204;-71
2021/09/29 04:35:59;;;;;;;1999.90;999.90;;;;;;;14.13;100.00;96177.69;5067099;28;20327;-72
2021/09/29 04:38:26;;;;;;;1999.90;999.90;;;;;;;14.28;100.00;96173.94;5068502;28;20207;-72
2021/09/29 04:40:54;;;;;;;1999.90;999.90;;;;;;;14.22;100.00;96171.44;5067844;28;20668;-72
2021/09/29 04:43:21;;;;;;;1999.90;999.90;;;;;;;14.27;100.00;96170.53;5067853;28;20201;-71
2021/09/29 04:45:49;;;;;;;1999.90;999.90;;;;;;;14.27;100.00;96167.94;5067346;27;20200;-72
2021/09/29 04:48:16;;;;;;;1999.90;999.90;;;;;;;14.27;100.00;96170.53;5068456;28;20693;-71
2021/09/29 04:50:43;;;;;;;1999.90;999.90;;;;;;;14.25;100.00;96171.94;5056713;28;20216;-72
2021/09/29 04:53:12;;;;;;;1999.90;999.90;;;;;;;14.23;100.00;96167.75;5048212;28;20205;-71
2021/09/29 04:55:39;;;;;;;1999.90;999.90;;;;;;;14.21;100.00;96171.72;5048425;28;20199;-71
2021/09/29 04:58:10;;;;;;;1999.90;999.90;;;;;;;14.17;100.00;96174.19;5049631;27;20205;-71
2021/09/29 05:00:38;;;;;;;1999.90;999.90;;;;;;;14.27;100.00;96178.38;5067405;28;20193;-72
2021/09/29 05:03:05;;;;;;;1999.90;999.90;;;;;;;14.28;100.00;96173.94;5067187;28;20228;-72
2021/09/29 05:05:34;;;;;;;1999.90;999.90;;;;;;;14.25;100.00;96185.75;5066576;28;20778;-72
2021/09/29 05:08:02;;;;;;;1999.90;999.90;;;;;;;14.33;100.00;96182.41;5068034;28;20192;-72
2021/09/29 05:10:39;;;;;;;1999.90;999.90;;;;;;;14.34;100.00;96186.59;5068259;28;20608;-73
2021/09/29 05:13:12;;;;;;;1999.90;999.90;;;;;;;14.27;100.00;96188.84;5067915;28;20185;-72
2021/09/29 05:15:40;;;;;;;1999.90;999.90;;;;;;;14.32;100.00;96185.31;5067983;28;20189;-72
2021/09/29 05:18:07;;;;;;;1999.90;999.90;;;;;;;14.30;100.00;96185.63;5067775;28;20805;-71
2021/09/29 05:20:34;;;;;;;1999.90;999.90;;;;;;;14.28;100.00;96190.38;5067948;28;20307;-72
2021/09/29 05:23:01;;;;;;;1999.90;999.90;;;;;;;14.35;100.00;96185.50;5067417;28;20200;-72
2021/09/29 05:25:29;;;;;;;1999.90;999.90;;;;;;;14.34;100.00;96197.03;5067423;28;20196;-72
2021/09/29 05:27:58;;;;;;;1999.90;999.90;;;;;;;14.37;100.00;96193.06;5065139;28;20235;-72
2021/09/29 05:30:25;;;;;;;1999.90;999.90;;;;;;;14.29;100.00;96204.25;5068075;28;20204;-72
2021/09/29 05:32:52;;;;;;;1999.90;999.90;;;;;;;14.31;100.00;96205.47;5068004;28;20224;-72
2021/09/29 05:35:20;;;;;;;1999.90;999.90;;;;;;;14.36;100.00;96208.00;5067669;28;20234;-72
2021/09/29 05:37:47;;;;;;;1999.90;999.90;;;;;;;14.38;100.00;96200.63;5067717;28;20227;-72
2021/09/29 05:40:14;;;;;;;1999.90;999.90;;;;;;;14.33;100.00;96203.34;5067892;28;20201;-72
2021/09/29 05:42:42;;;;;;;1999.90;999.90;;;;;;;14.40;100.00;96210.78;5067345;28;20208;-71
2021/09/29 05:45:11;;;;;;;1999.90;999.90;;;;;;;14.34;100.00;96207.50;5067453;27;20204;-72
2021/09/29 05:47:38;;;;;;;1999.90;999.90;;;;;;;14.36;100.00;96210.59;5067649;28;20215;-73
2021/09/29 05:50:08;;;;;;;1999.90;999.90;;;;;;;14.37;100.00;96212.16;5074969;27;20221;-72
2021/09/29 05:52:35;;;;;;;1999.90;999.90;;;;;;;14.34;100.00;96217.19;5152155;27;20194;-73
2021/09/29 05:55:02;;;;;;;1999.90;999.90;;;;;;;14.48;100.00;96220.53;5152409;27;20280;-72
2021/09/29 05:57:30;;;;;;;1999.90;999.90;;;;;;;14.40;100.00;96214.16;5152023;27;20217;-71
2021/09/29 05:59:57;;;;;;;1999.90;999.90;;;;;;;14.47;100.00;96219.75;5152193;27;20261;-72
2021/09/29 06:02:27;;;;;;;1999.90;999.90;;;;;;;14.40;100.00;96221.22;5152253;27;20197;-72
2021/09/29 06:04:54;;;;;;;1999.90;999.90;;;;;;;14.42;100.00;96221.72;5151973;27;20236;-71
2021/09/29 06:07:21;;;;;;;1999.90;999.90;;;;;;;14.50;100.00;96229.59;5152099;27;20606;-72
2021/09/29 06:09:49;;;;;;;1999.90;999.90;;;;;;;14.39;100.00;96232.78;5151983;27;20258;-72
2021/09/29 06:12:16;;;;;;;1999.90;999.90;;;;;;;14.39;100.00;96236.19;5151793;27;20194;-72
2021/09/29 06:14:49;;;;;;;1999.90;999.90;;;;;;;14.38;100.00;96237.25;5152476;27;20198;-72
2021/09/29 06:17:22;;;;;;;1999.90;999.90;;;;;;;14.51;100.00;96233.00;5151916;27;20214;-72
2021/09/29 06:19:51;;;;;;;1999.90;999.90;;;;;;;14.50;100.00;96249.75;5152047;27;20563;-72
2021/09/29 06:22:19;;;;;;;1999.90;999.90;;;;;;;14.34;100.00;96249.34;5151879;27;20345;-72
2021/09/29 06:24:46;;;;;;;1999.90;999.90;;;;;;;14.36;100.00;96249.03;5151718;27;20880;-71
2021/09/29 06:27:13;;;;;;;1999.90;999.90;;;;;;;14.56;100.00;96254.56;5110245;27;20202;-72
2021/09/29 06:29:40;;;;;;;1999.90;999.90;;;;;;;14.49;100.00;96250.84;5066803;28;20285;-71
2021/09/29 06:32:08;;;;;;;1999.90;999.90;;;;;;;14.56;99.89;96257.19;5066941;28;20204;-72
2021/09/29 06:34:36;;;;;;;1999.90;999.90;;;;;;;14.58;100.00;96259.50;5066207;28;20196;-71
2021/09/29 06:37:05;;;;;;;1999.90;999.90;;;;;;;14.58;99.95;96262.13;5066438;28;20663;-72
2021/09/29 06:39:32;;;;;;;1999.90;999.90;;;;;;;14.46;100.00;96256.66;5066556;28;20287;-72
2021/09/29 06:42:00;;;;;;;1999.90;999.90;;;;;;;14.56;100.00;96259.03;5066460;28;20192;-72
2021/09/29 06:44:28;;;;;;;1999.90;999.90;;;;;;;14.57;100.00;96260.56;5066443;28;20668;-73
2021/09/29 06:46:56;;;;;;;1999.90;999.90;;;;;;;14.52;100.00;96263.31;5066544;28;20261;-73
2021/09/29 06:49:23;;;;;;;1999.90;999.90;;;;;;;14.47;100.00;96264.22;5066414;28;20192;-73
2021/09/29 06:51:51;;;;;;;1999.90;999.90;;;;;;;14.51;100.00;96265.16;5066491;28;20203;-72
2021/09/29 06:54:19;;;;;;;1999.90;999.90;;;;;;;14.49;100.00;96269.16;5066378;28;20208;-72
2021/09/29 06:56:46;;;;;;;1999.90;999.90;;;;;;;14.58;100.00;96273.38;5066212;28;20235;-72
2021/09/29 06:59:14;;;;;;;1999.90;999.90;;;;;;;14.72;100.00;96275.91;5066280;28;20192;-72
2021/09/29 07:01:41;;;;;;;1999.90;999.90;;;;;;;14.70;100.00;96279.88;5066151;28;20240;-72
2021/09/29 07:04:08;;;;;;;1999.90;999.90;;;;;;;14.65;100.00;96273.69;5066216;28;20219;-72
2021/09/29 07:06:35;;;;;;;1999.90;999.90;;;;;;;14.70;100.00;96279.88;5066214;28;20295;-71
2021/09/29 07:09:02;;;;;;;1999.90;999.90;;;;;;;14.73;100.00;96274.84;5066009;28;20288;-71
2021/09/29 07:11:31;;;;;;;1999.90;999.90;;;;;;;14.66;100.00;96279.72;5066438;28;20246;-72
2021/09/29 07:13:58;;;;;;;1999.90;999.90;;;;;;;14.74;100.00;96273.00;5066100;28;20215;-71
2021/09/29 07:16:28;;;;;;;1999.90;999.90;;;;;;;14.78;100.00;96281.78;5066072;28;20252;-72
2021/09/29 07:19:01;;;;;;;1999.90;999.90;;;;;;;14.81;100.00;96281.16;5066294;28;20200;-72
2021/09/29 07:21:28;;;;;;;1999.90;999.90;;;;;;;14.93;100.00;96286.63;5066072;28;20188;-73
2021/09/29 07:23:56;;;;;;;1999.90;999.90;;;;;;;14.97;99.82;96285.72;5065879;28;20717;-72
2021/09/29 07:26:23;;;;;;;1999.90;999.90;;;;;;;15.09;99.51;96278.06;5066115;28;20215;-72
2021/09/29 07:28:52;;;;;;;1999.90;999.90;;;;;;;15.22;100.00;96279.03;5065886;28;20689;-72
2021/09/29 07:31:19;;;;;;;1999.90;999.90;;;;;;;15.23;99.15;96280.59;5066344;28;20210;-72
2021/09/29 07:33:47;;;;;;;1999.90;999.90;;;;;;;15.37;97.07;96280.47;5066355;28;20231;-72
2021/09/29 07:36:14;;;;;;;1999.90;999.90;;;;;;;15.42;96.60;96286.34;5065689;27;20220;-73
2021/09/29 07:38:41;;;;;;;1999.90;999.90;;;;;;;15.34;96.74;96288.97;5065585;28;20221;-71
2021/09/29 07:41:09;;;;;;;1999.90;999.90;;;;;;;15.37;97.81;96296.97;5066101;28;20204;-72
2021/09/29 07:43:36;;;;;;;1999.90;999.90;;;;;;;15.35;98.42;96288.63;5065909;28;20205;-72
2021/09/29 07:46:05;;;;;;;1999.90;999.90;;;;;;;15.35;97.98;96291.25;5093206;27;20194;-72
2021/09/29 07:48:32;;;;;;;1999.90;999.90;;;;;;;15.37;97.31;96288.34;5155012;27;20235;-73
2021/09/29 07:50:59;;;;;;;1999.90;999.90;;;;;;;15.49;98.56;96297.13;5154716;27;20653;-72
2021/09/29 07:53:26;;;;;;;1999.90;999.90;;;;;;;15.50;97.55;96303.94;5154497;27;20276;-72
2021/09/29 07:55:54;;;;;;;1999.90;999.90;;;;;;;15.64;96.82;96297.84;5154499;27;20250;-73
2021/09/29 07:58:21;;;;;;;1999.90;999.90;;;;;;;15.70;95.54;96297.38;5154414;27;20231;-72
2021/09/29 08:00:49;;;;;;;1999.90;999.90;;;;;;;15.73;95.66;96302.03;5154421;27;20193;-72
2021/09/29 08:03:18;;;;;;;1999.90;999.90;;;;;;;15.74;95.20;96302.81;5154631;27;20872;-72
2021/09/29 08:05:45;;;;;;;1999.90;999.90;;;;;;;15.76;94.95;96305.88;5154452;27;20200;-73
2021/09/29 08:08:12;;;;;;;1999.90;999.90;;;;;;;15.82;95.78;96300.19;5154653;27;20189;-73
2021/09/29 08:10:40;;;;;;;1999.90;999.90;;;;;;;15.86;95.34;96302.97;5154302;27;20571;-71
2021/09/29 08:13:07;;;;;;;1999.90;999.90;;;;;;;15.93;95.92;96301.44;5154599;27;20197;-72
2021/09/29 08:15:34;;;;;;;1999.90;999.90;;;;;;;15.97;94.75;96308.69;5154330;27;20767;-72
2021/09/29 08:18:01;;;;;;;1999.90;999.90;;;;;;;15.76;93.35;96305.88;5154011;27;20227;-72
2021/09/29 08:20:34;;;;;;;1999.90;999.90;;;;;;;15.81;94.37;96306.50;5154294;27;20198;-73
2021/09/29 08:23:05;;;;;;;1999.90;999.90;;;;;;;15.83;93.68;96309.59;5154481;27;20896;-73
2021/09/29 08:26:01;;;;;;;1999.90;999.90;;;;;;;15.78;93.88;96307.13;5154123;27;20182;-73
2021/09/29 08:28:39;;;;;;;1999.90;999.90;;;;;;;15.80;94.37;96309.41;5049021;28;20186;-72
2021/09/29 08:31:11;;;;;;;1999.90;999.90;;;;;;;15.85;93.79;96304.81;5048628;28;20707;-72
2021/09/29 08:36:29;;;;;;;1999.90;999.90;;;;;;;15.98;92.22;96318.88;5041273;28;20754;-72
2021/09/29 08:38:58;;;;;;;1999.90;999.90;;;;;;;15.97;92.96;96312.06;5048915;28;20232;-72
2021/09/29 08:41:46;;;;;;;1999.90;999.90;;;;;;;15.95;93.16;96308.97;5048458;28;20197;-72
2021/09/29 08:44:18;;;;;;;1999.90;999.90;;;;;;;16.08;91.73;96309.94;5048493;28;20189;-72
2021/09/29 08:49:33;;;;;;;1999.90;999.90;;;;;;;16.15;90.02;96311.00;5039505;28;20197;-73
2021/09/29 08:52:17;;;;;;;1999.90;999.90;;;;;;;16.38;92.07;96316.09;5048619;28;20181;-72
2021/09/29 08:55:09;;;;;;;1999.90;999.90;;;;;;;16.58;89.10;96307.59;5048490;28;20230;-73
2021/09/29 08:57:56;;;;;;;1999.90;999.90;;;;;;;16.64;88.44;96301.13;5047849;28;20296;-72
2021/09/29 09:16:58;;;;;;;1999.90;999.90;;;;;;;17.12;88.08;96304.25;5047947;28;20614;-72
2021/09/29 09:19:28;;;;;;;1999.90;999.90;;;;;;;17.32;86.10;96312.53;5047926;28;20220;-72
2021/09/29 09:21:59;;;;;;;1999.90;999.90;;;;;;;17.23;85.14;96314.41;5048282;28;20199;-72
2021/09/29 09:24:30;;;;;;;1999.90;999.90;;;;;;;17.18;85.79;96310.84;5048274;28;20239;-72
2021/09/29 09:26:58;;;;;;;1999.90;999.90;;;;;;;17.33;84.75;96314.06;5055163;28;20185;-72
2021/09/29 09:29:26;;;;;;;1999.90;999.90;;;;;;;17.30;86.29;96314.69;5067795;28;20201;-73
2021/09/29 09:31:54;;;;;;;1999.90;999.90;;;;;;;17.18;86.49;96320.63;5067938;28;21036;-72
2021/09/29 09:34:27;;;;;;;1999.90;999.90;;;;;;;17.28;87.12;96322.13;5068115;28;20192;-72
2021/09/29 09:36:56;;;;;;;1999.90;999.90;;;;;;;17.16;86.77;96330.66;5067942;28;20184;-72
2021/09/29 09:39:25;;;;;;;1999.90;999.90;;;;;;;17.14;86.73;96332.81;5067609;28;20276;-72
2021/09/29 09:41:56;;;;;;;1999.90;999.90;;;;;;;16.96;86.62;96331.34;5067784;28;20192;-72
2021/09/29 09:44:25;;;;;;;1999.90;999.90;;;;;;;16.97;87.30;96338.91;5067351;28;20193;-72
2021/09/29 09:47:03;;;;;;;1999.90;999.90;;;;;;;16.86;87.09;96337.69;5067415;28;20737;-72
2021/09/29 09:49:31;;;;;;;1999.90;999.90;;;;;;;16.70;86.40;96334.78;5112243;27;20620;-72
2021/09/29 09:52:00;;;;;;;1999.90;999.90;;;;;;;16.59;88.44;96330.91;5152219;27;20756;-72
2021/09/29 09:54:38;;;;;;;1999.90;999.90;;;;;;;16.62;88.64;96332.94;5152148;27;20226;-72
2021/09/29 09:57:18;;;;;;;1999.90;999.90;;;;;;;16.67;87.88;96327.53;5152481;27;20204;-72
2021/09/29 09:59:49;;;;;;;1999.90;999.90;;;;;;;16.77;87.33;96331.69;5152099;27;20186;-72
2021/09/29 10:02:16;;;;;;;1999.90;999.90;;;;;;;16.77;88.35;96331.69;5152155;27;20193;-72
2021/09/29 10:04:43;;;;;;;1999.90;999.90;;;;;;;16.83;87.60;96327.03;5151891;27;20201;-72
2021/09/29 10:07:11;;;;;;;1999.90;999.90;;;;;;;16.85;87.28;96325.63;5152140;27;20703;-71
2021/09/29 10:09:41;;;;;;;1999.90;999.90;;;;;;;16.93;88.17;96324.09;5151032;27;20202;-72
2021/09/29 10:12:21;;;;;;;1999.90;999.90;;;;;;;17.08;86.64;96329.63;5151849;27;20182;-72
2021/09/29 10:23:15;;;;;;;1999.90;999.90;;;;;;;17.35;87.86;96319.75;5151700;27;20254;-72
2021/09/29 10:26:21;;;;;;;1999.90;999.90;;;;;;;17.40;84.46;96327.47;5151595;27;20214;-72
2021/09/29 10:28:49;;;;;;;1999.90;999.90;;;;;;;17.29;84.28;96329.66;5151407;27;20186;-72
2021/09/29 10:31:31;;;;;;;1999.90;999.90;;;;;;;17.39;85.48;96326.69;5151551;27;20201;-73
2021/09/29 10:34:03;;;;;;;1999.90;999.90;;;;;;;17.46;84.51;96323.59;5151356;27;20224;-73
2021/09/29 10:36:44;;;;;;;1999.90;999.90;;;;;;;17.41;83.46;96326.38;5151367;27;20236;-73
2021/09/29 10:42:21;;;;;;;1999.90;999.90;;;;;;;17.27;85.36;96331.09;5151546;27;20694;-72
2021/09/29 10:47:42;;;;;;;1999.90;999.90;;;;;;;17.42;83.74;96328.72;5151389;27;20270;-72
2021/09/29 11:29:39;;;;;;;1999.90;999.90;;;;;;;17.37;82.22;96307.88;5106330;28;20224;-72
2021/09/29 11:32:18;;;;;;;1999.90;999.90;;;;;;;17.35;83.40;96301.38;5106128;28;20698;-72
2021/09/29 11:34:46;;;;;;;1999.90;999.90;;;;;;;17.39;83.01;96299.66;5106194;28;20187;-72
2021/09/29 11:37:29;;;;;;;1999.90;999.90;;;;;;;17.35;82.16;96301.38;5106121;28;20199;-73
2021/09/29 12:08:11;;;;;;;1999.90;999.90;;;;;;;17.35;85.48;96296.13;5071833;28;20218;-72
2021/09/29 12:10:49;;;;;;;1999.90;999.90;;;;;;;17.43;85.38;96288.22;5071641;28;20188;-72
2021/09/29 12:13:16;;;;;;;1999.90;999.90;;;;;;;17.48;85.13;96289.88;5071646;28;20181;-72
2021/09/29 12:15:47;;;;;;;1999.90;999.90;;;;;;;17.47;85.04;96298.84;5071916;28;20223;-72
2021/09/29 12:18:15;;;;;;;1999.90;999.90;;;;;;;17.53;84.99;96300.22;5071810;28;20200;-71
2021/09/29 12:20:53;;;;;;;1999.90;999.90;;;;;;;17.44;84.48;96299.47;5071690;28;20208;-72
2021/09/29 12:23:22;;;;;;;1999.90;999.90;;;;;;;17.12;86.67;96299.00;5071724;28;20200;-72
2021/09/29 12:25:53;;;;;;;1999.90;999.90;;;;;;;16.95;87.79;96304.28;5078617;28;20711;-72
2021/09/29 12:28:32;;;;;;;1999.90;999.90;;;;;;;17.09;87.22;96306.72;5091660;28;20184;-71
2021/09/29 12:31:28;;;;;;;1999.90;999.90;;;;;;;17.09;86.32;96298.84;5091466;28;20184;-70
2021/09/29 12:33:59;;;;;;;1999.90;999.90;;;;;;;17.13;86.82;96290.03;5091922;28;20616;-72
2021/09/29 12:36:30;;;;;;;1999.90;999.90;;;;;;;17.45;86.18;96295.75;5091740;28;20184;-72
2021/09/29 12:38:58;;;;;;;1999.90;999.90;;;;;;;17.46;85.78;96295.44;5092020;28;20282;-72
2021/09/29 12:41:28;;;;;;;1999.90;999.90;;;;;;;17.49;87.27;96286.16;5091590;28;20202;-72
2021/09/29 12:44:01;;;;;;;1999.90;999.90;;;;;;;17.53;85.26;96281.81;5091226;28;20709;-72